sensor_id;sensor_type;location;lat;lon;timestamp;pressure;altitude;pressure_sealevel;temperature;humidity
22440;BME280;11387;51.612;7.210;2023-01-25T00:01:50;102865.91;;;-0.15;83.00
22440;BME280;11387;51.612;7.210;2023-01-25T00:04:21;102844.72;;;-0.18;82.76
22440;BME280;11387;51.612;7.210;2023-01-25T00:06:49;102842.78;;;-0.32;82.91
22440;BME280;11387;51.612;7.210;2023-01-25T00:09:18;102845.41;;;-0.24;83.08
22440;BME280;11387;51.612;7.210;2023-01-25T00:11:47;102845.41;;;-0.24;83.06
22440;BME280;11387;51.612;7.210;2023-01-25T00:14:15;102839.38;;;-0.26;82.70
22440;BME280;11387;51.612;7.210;2023-01-25T00:16:44;102839.69;;;-0.21;82.86
22440;BME280;11387;51.612;7.210;2023-01-25T00:19:13;102844.56;;;-0.25;82.63
22440;BME280;11387;51.612;7.210;2023-01-25T00:21:43;102839.06;;;-0.31;83.16
22440;BME280;11387;51.612;7.210;2023-01-25T00:24:11;102833.31;;;-0.28;82.85
22440;BME280;11387;51.612;7.210;2023-01-25T00:26:41;102834.81;;;-0.26;82.99
22440;BME280;11387;51.612;7.210;2023-01-25T00:29:11;102834.69;;;-0.32;83.17
22440;BME280;11387;51.612;7.210;2023-01-25T00:31:49;102829.66;;;-0.36;82.52
22440;BME280;11387;51.612;7.210;2023-01-25T00:34:43;102821.94;;;-0.39;83.18
22440;BME280;11387;51.612;7.210;2023-01-25T00:37:19;102814.53;;;-0.37;82.96
22440;BME280;11387;51.612;7.210;2023-01-25T00:39:48;102812.03;;;-0.46;82.78
22440;BME280;11387;51.612;7.210;2023-01-25T00:42:18;102811.53;;;-0.50;83.42
22440;BME280;11387;51.612;7.210;2023-01-25T00:44:47;102812.19;;;-0.40;82.67
22440;BME280;11387;51.612;7.210;2023-01-25T00:47:15;102816.88;;;-0.33;82.83
22440;BME280;11387;51.612;7.210;2023-01-25T00:49:44;102807.16;;;-0.43;82.35
22440;BME280;11387;51.612;7.210;2023-01-25T00:52:14;102818.09;;;-0.44;82.81
22440;BME280;11387;51.612;7.210;2023-01-25T00:54:44;102811.72;;;-0.51;83.41
22440;BME280;11387;51.612;7.210;2023-01-25T00:57:12;102811.88;;;-0.45;83.11
22440;BME280;11387;51.612;7.210;2023-01-25T00:59:41;102813.22;;;-0.49;82.90
22440;BME280;11387;51.612;7.210;2023-01-25T01:02:11;102806.81;;;-0.48;82.37
22440;BME280;11387;51.612;7.210;2023-01-25T01:04:39;102808.16;;;-0.44;82.82
22440;BME280;11387;51.612;7.210;2023-01-25T01:07:11;102808.81;;;-0.33;82.12
22440;BME280;11387;51.612;7.210;2023-01-25T01:09:41;102801.94;;;-0.44;82.06
22440;BME280;11387;51.612;7.210;2023-01-25T01:12:09;102806.81;;;-0.48;82.67
22440;BME280;11387;51.612;7.210;2023-01-25T01:14:38;102800.13;;;-0.52;83.17
22440;BME280;11387;51.612;7.210;2023-01-25T01:17:06;102798.28;;;-0.59;82.95
22440;BME280;11387;51.612;7.210;2023-01-25T01:19:34;102796.72;;;-0.38;82.96
22440;BME280;11387;51.612;7.210;2023-01-25T01:22:03;102801.19;;;-0.22;82.20
22440;BME280;11387;51.612;7.210;2023-01-25T01:24:31;102802.88;;;-0.29;81.99
22440;BME280;11387;51.612;7.210;2023-01-25T01:27:01;102802.94;;;-0.37;82.06
22440;BME280;11387;51.612;7.210;2023-01-25T01:29:29;102797.69;;;-0.30;82.42
22440;BME280;11387;51.612;7.210;2023-01-25T01:31:58;102807.13;;;-0.35;82.67
22440;BME280;11387;51.612;7.210;2023-01-25T01:34:27;102803.47;;;-0.50;82.58
22440;BME280;11387;51.612;7.210;2023-01-25T01:36:55;102810.53;;;-0.49;82.45
22440;BME280;11387;51.612;7.210;2023-01-25T01:39:23;102799.59;;;-0.47;82.94
22440;BME280;11387;51.612;7.210;2023-01-25T01:41:52;102796.75;;;-0.54;82.77
22440;BME280;11387;51.612;7.210;2023-01-25T01:44:46;102805.19;;;-0.65;83.02
22440;BME280;11387;51.612;7.210;2023-01-25T01:47:19;102798.81;;;-0.72;83.42
22440;BME280;11387;51.612;7.210;2023-01-25T01:49:52;102808.91;;;-0.82;83.45
22440;BME280;11387;51.612;7.210;2023-01-25T01:52:24;102797.81;;;-0.87;83.86
22440;BME280;11387;51.612;7.210;2023-01-25T01:54:58;102794.78;;;-0.84;83.85
22440;BME280;11387;51.612;7.210;2023-01-25T01:57:31;102797.81;;;-0.79;83.60
22440;BME280;11387;51.612;7.210;2023-01-25T02:00:06;102796.47;;;-0.75;83.50
22440;BME280;11387;51.612;7.210;2023-01-25T02:02:36;102797.97;;;-0.64;83.49
22440;BME280;11387;51.612;7.210;2023-01-25T02:05:08;102794.06;;;-0.46;82.66
22440;BME280;11387;51.612;7.210;2023-01-25T02:07:39;102800.94;;;-0.51;82.90
22440;BME280;11387;51.612;7.210;2023-01-25T02:10:10;102792.72;;;-0.50;82.78
22440;BME280;11387;51.612;7.210;2023-01-25T02:12:40;102800.28;;;-0.45;82.87
22440;BME280;11387;51.612;7.210;2023-01-25T02:15:11;102793.41;;;-0.56;82.80
22440;BME280;11387;51.612;7.210;2023-01-25T02:17:40;102790.72;;;-0.56;82.67
22440;BME280;11387;51.612;7.210;2023-01-25T02:20:13;102790.59;;;-0.71;82.63
22440;BME280;11387;51.612;7.210;2023-01-25T02:22:51;102786.69;;;-0.60;82.94
22440;BME280;11387;51.612;7.210;2023-01-25T02:25:24;102788.69;;;-0.46;82.45
22440;BME280;11387;51.612;7.210;2023-01-25T02:27:56;102787.69;;;-0.53;82.40
22440;BME280;11387;51.612;7.210;2023-01-25T02:30:25;102794.56;;;-0.50;81.99
22440;BME280;11387;51.612;7.210;2023-01-25T02:32:54;102788.69;;;-0.46;81.85
22440;BME280;11387;51.612;7.210;2023-01-25T02:35:34;102792.19;;;-0.45;81.87
22440;BME280;11387;51.612;7.210;2023-01-25T02:38:04;102790.84;;;-0.33;81.62
22440;BME280;11387;51.612;7.210;2023-01-25T02:40:41;102795.66;;;-0.28;81.63
22440;BME280;11387;51.612;7.210;2023-01-25T02:43:11;102790.34;;;-0.37;81.63
22440;BME280;11387;51.612;7.210;2023-01-25T02:45:40;102796.72;;;-0.38;81.89
22440;BME280;11387;51.612;7.210;2023-01-25T02:48:11;102801.09;;;-0.37;81.88
22440;BME280;11387;51.612;7.210;2023-01-25T02:50:39;102804.78;;;-0.38;81.67
22440;BME280;11387;51.612;7.210;2023-01-25T02:53:08;102796.56;;;-0.44;81.67
22440;BME280;11387;51.612;7.210;2023-01-25T02:55:38;102798.09;;;-0.58;82.10
22440;BME280;11387;51.612;7.210;2023-01-25T02:58:06;102795.41;;;-0.58;82.96
22440;BME280;11387;51.612;7.210;2023-01-25T03:00:35;102794.22;;;-0.47;82.91
22440;BME280;11387;51.612;7.210;2023-01-25T03:03:03;102784.28;;;-0.39;82.96
22440;BME280;11387;51.612;7.210;2023-01-25T03:05:32;102786.31;;;-0.41;82.69
22440;BME280;11387;51.612;7.210;2023-01-25T03:08:00;102788.25;;;-0.26;82.37
22440;BME280;11387;51.612;7.210;2023-01-25T03:10:28;102786.13;;;-0.39;82.54
22440;BME280;11387;51.612;7.210;2023-01-25T03:12:59;102784.28;;;-0.39;82.82
22440;BME280;11387;51.612;7.210;2023-01-25T03:15:28;102782.09;;;-0.35;82.38
22440;BME280;11387;51.612;7.210;2023-01-25T03:17:56;102775.47;;;-0.24;81.71
22440;BME280;11387;51.612;7.210;2023-01-25T03:20:25;102771.78;;;-0.23;81.60
22440;BME280;11387;51.612;7.210;2023-01-25T03:22:54;102761.13;;;-0.48;81.68
22440;BME280;11387;51.612;7.210;2023-01-25T03:25:22;102758.16;;;-0.69;82.23
22440;BME280;11387;51.612;7.210;2023-01-25T03:27:51;102761.53;;;-0.75;82.58
22440;BME280;11387;51.612;7.210;2023-01-25T03:30:21;102754.31;;;-0.75;82.32
22440;BME280;11387;51.612;7.210;2023-01-25T03:32:50;102751.13;;;-0.78;82.44
22440;BME280;11387;51.612;7.210;2023-01-25T03:35:19;102748.44;;;-0.86;83.11
22440;BME280;11387;51.612;7.210;2023-01-25T03:37:48;102745.94;;;-0.88;83.00
22440;BME280;11387;51.612;7.210;2023-01-25T03:40:16;102742.38;;;-0.64;82.80
22440;BME280;11387;51.612;7.210;2023-01-25T03:42:45;102735.16;;;-0.63;82.74
22440;BME280;11387;51.612;7.210;2023-01-25T03:45:13;102730.34;;;-0.45;82.64
22440;BME280;11387;51.612;7.210;2023-01-25T03:47:43;102734.97;;;-0.62;82.41
22440;BME280;11387;51.612;7.210;2023-01-25T03:50:12;102731.47;;;-0.71;82.65
22440;BME280;11387;51.612;7.210;2023-01-25T03:52:40;102727.94;;;-0.79;82.49
22440;BME280;11387;51.612;7.210;2023-01-25T03:55:12;102715.13;;;-0.61;82.91
22440;BME280;11387;51.612;7.210;2023-01-25T03:57:40;102715.78;;;-0.59;82.94
22440;BME280;11387;51.612;7.210;2023-01-25T04:00:10;102715.09;;;-0.53;82.96
22440;BME280;11387;51.612;7.210;2023-01-25T04:02:39;102715.06;;;-0.45;82.77
22440;BME280;11387;51.612;7.210;2023-01-25T04:05:09;102711.53;;;-0.45;82.77
22440;BME280;11387;51.612;7.210;2023-01-25T04:07:37;102707.31;;;-0.40;82.14
22440;BME280;11387;51.612;7.210;2023-01-25T04:10:07;102704.28;;;-0.37;82.21
22440;BME280;11387;51.612;7.210;2023-01-25T04:12:36;102694.25;;;-0.51;81.79
22440;BME280;11387;51.612;7.210;2023-01-25T04:15:06;102703.72;;;-0.63;82.05
22440;BME280;11387;51.612;7.210;2023-01-25T04:17:35;102691.81;;;-0.69;82.51
22440;BME280;11387;51.612;7.210;2023-01-25T04:20:05;102689.16;;;-0.77;82.58
22440;BME280;11387;51.612;7.210;2023-01-25T04:22:35;102681.25;;;-0.78;82.43
22440;BME280;11387;51.612;7.210;2023-01-25T04:25:04;102680.09;;;-0.84;82.72
22440;BME280;11387;51.612;7.210;2023-01-25T04:27:34;102685.28;;;-0.82;82.92
22440;BME280;11387;51.612;7.210;2023-01-25T04:30:03;102679.09;;;-0.83;82.91
22440;BME280;11387;51.612;7.210;2023-01-25T04:32:33;102674.41;;;-0.89;83.60
22440;BME280;11387;51.612;7.210;2023-01-25T04:35:02;102674.69;;;-0.76;83.77
22440;BME280;11387;51.612;7.210;2023-01-25T04:37:35;102668.47;;;-0.68;83.43
22440;BME280;11387;51.612;7.210;2023-01-25T04:40:04;102669.13;;;-0.66;83.81
22440;BME280;11387;51.612;7.210;2023-01-25T04:42:33;102668.69;;;-0.47;82.91
22440;BME280;11387;51.612;7.210;2023-01-25T04:45:02;102662.63;;;-0.41;82.26
22440;BME280;11387;51.612;7.210;2023-01-25T04:47:31;102676.09;;;-0.49;82.21
22440;BME280;11387;51.612;7.210;2023-01-25T04:50:00;102668.84;;;-0.40;82.26
22440;BME280;11387;51.612;7.210;2023-01-25T04:52:28;102664.81;;;-0.44;82.12
22440;BME280;11387;51.612;7.210;2023-01-25T04:54:58;102668.06;;;-0.57;81.66
22440;BME280;11387;51.612;7.210;2023-01-25T04:57:26;102663.94;;;-0.68;82.58
22440;BME280;11387;51.612;7.210;2023-01-25T04:59:55;102658.41;;;-0.82;82.64
22440;BME280;11387;51.612;7.210;2023-01-25T05:02:25;102659.25;;;-0.82;83.00
22440;BME280;11387;51.612;7.210;2023-01-25T05:04:53;102666.81;;;-0.77;83.14
22440;BME280;11387;51.612;7.210;2023-01-25T05:07:22;102667.66;;;-0.77;83.26
22440;BME280;11387;51.612;7.210;2023-01-25T05:09:50;102668.47;;;-0.76;83.19
22440;BME280;11387;51.612;7.210;2023-01-25T05:12:20;102666.97;;;-0.71;83.23
22440;BME280;11387;51.612;7.210;2023-01-25T05:14:49;102668.13;;;-0.73;83.42
22440;BME280;11387;51.612;7.210;2023-01-25T05:17:18;102672.69;;;-0.74;83.40
22440;BME280;11387;51.612;7.210;2023-01-25T05:19:46;102670.47;;;-0.62;83.24
22440;BME280;11387;51.612;7.210;2023-01-25T05:22:23;102675.59;;;-0.52;83.14
22440;BME280;11387;51.612;7.210;2023-01-25T05:24:51;102673.22;;;-0.47;82.96
22440;BME280;11387;51.612;7.210;2023-01-25T05:27:21;102661.63;;;-0.48;83.09
22440;BME280;11387;51.612;7.210;2023-01-25T05:29:49;102667.66;;;-0.38;82.64
22440;BME280;11387;51.612;7.210;2023-01-25T05:32:21;102665.91;;;-0.30;82.03
22440;BME280;11387;51.612;7.210;2023-01-25T05:34:51;102668.69;;;-0.47;81.96
22440;BME280;11387;51.612;7.210;2023-01-25T05:37:20;102665.72;;;-0.60;82.26
22440;BME280;11387;51.612;7.210;2023-01-25T05:39:49;102664.34;;;-0.56;82.50
22440;BME280;11387;51.612;7.210;2023-01-25T05:42:17;102669.78;;;-0.64;82.43
22440;BME280;11387;51.612;7.210;2023-01-25T05:44:47;102662.91;;;-0.66;82.70
22440;BME280;11387;51.612;7.210;2023-01-25T05:47:17;102672.09;;;-0.61;82.95
22440;BME280;11387;51.612;7.210;2023-01-25T05:49:45;102666.38;;;-0.58;82.75
22440;BME280;11387;51.612;7.210;2023-01-25T05:52:15;102667.78;;;-0.70;82.80
22440;BME280;11387;51.612;7.210;2023-01-25T05:54:55;102661.34;;;-0.61;83.01
22440;BME280;11387;51.612;7.210;2023-01-25T05:57:29;102660.06;;;-0.65;83.25
22440;BME280;11387;51.612;7.210;2023-01-25T06:00:02;102653.34;;;-0.69;83.11
22440;BME280;11387;51.612;7.210;2023-01-25T06:02:34;102656.22;;;-0.71;83.36
22440;BME280;11387;51.612;7.210;2023-01-25T06:05:08;102645.88;;;-0.59;82.98
22440;BME280;11387;51.612;7.210;2023-01-25T06:07:38;102643.94;;;-0.65;82.95
22440;BME280;11387;51.612;7.210;2023-01-25T06:10:09;102656.03;;;-0.69;83.20
22440;BME280;11387;51.612;7.210;2023-01-25T06:12:39;102651.94;;;-0.57;83.11
22440;BME280;11387;51.612;7.210;2023-01-25T06:15:11;102651.75;;;-0.55;82.83
22440;BME280;11387;51.612;7.210;2023-01-25T06:17:40;102653.69;;;-0.72;82.86
22440;BME280;11387;51.612;7.210;2023-01-25T06:20:10;102648.97;;;-0.70;83.17
22440;BME280;11387;51.612;7.210;2023-01-25T06:22:38;102655.03;;;-0.68;82.24
22440;BME280;11387;51.612;7.210;2023-01-25T06:25:08;102649.38;;;-0.89;83.01
22440;BME280;11387;51.612;7.210;2023-01-25T06:27:37;102653.41;;;-0.85;83.34
22440;BME280;11387;51.612;7.210;2023-01-25T06:30:12;102659.09;;;-0.88;83.52
22440;BME280;11387;51.612;7.210;2023-01-25T06:32:41;102655.75;;;-0.90;83.67
22440;BME280;11387;51.612;7.210;2023-01-25T06:35:11;102652.34;;;-0.76;83.77
22440;BME280;11387;51.612;7.210;2023-01-25T06:37:42;102659.75;;;-0.78;83.11
22440;BME280;11387;51.612;7.210;2023-01-25T06:40:11;102653.13;;;-0.98;83.33
22440;BME280;11387;51.612;7.210;2023-01-25T06:42:40;102657.84;;;-1.09;83.97
22440;BME280;11387;51.612;7.210;2023-01-25T06:45:10;102656.88;;;-1.24;84.80
22440;BME280;11387;51.612;7.210;2023-01-25T06:47:39;102663.25;;;-1.25;84.87
22440;BME280;11387;51.612;7.210;2023-01-25T06:50:09;102664.09;;;-1.24;85.00
22440;BME280;11387;51.612;7.210;2023-01-25T06:52:37;102666.78;;;-1.24;85.08
22440;BME280;11387;51.612;7.210;2023-01-25T06:55:07;102669.75;;;-1.11;84.85
22440;BME280;11387;51.612;7.210;2023-01-25T06:57:40;102665.75;;;-1.15;84.90
22440;BME280;11387;51.612;7.210;2023-01-25T07:00:11;102663.59;;;-1.28;85.69
22440;BME280;11387;51.612;7.210;2023-01-25T07:02:40;102665.41;;;-1.20;85.45
22440;BME280;11387;51.612;7.210;2023-01-25T07:05:09;102653.16;;;-1.15;85.39
22440;BME280;11387;51.612;7.210;2023-01-25T07:07:39;102650.44;;;-0.98;84.99
22440;BME280;11387;51.612;7.210;2023-01-25T07:10:11;102657.44;;;-0.89;84.63
22440;BME280;11387;51.612;7.210;2023-01-25T07:12:40;102655.13;;;-0.92;84.39
22440;BME280;11387;51.612;7.210;2023-01-25T07:15:10;102658.78;;;-0.85;84.12
22440;BME280;11387;51.612;7.210;2023-01-25T07:17:39;102652.72;;;-0.79;84.05
22440;BME280;11387;51.612;7.210;2023-01-25T07:20:09;102659.22;;;-0.65;83.89
22440;BME280;11387;51.612;7.210;2023-01-25T07:22:37;102647.97;;;-0.69;83.76
22440;BME280;11387;51.612;7.210;2023-01-25T07:25:07;102648.00;;;-0.77;83.85
22440;BME280;11387;51.612;7.210;2023-01-25T07:27:36;102656.06;;;-0.77;84.04
22440;BME280;11387;51.612;7.210;2023-01-25T07:30:06;102650.69;;;-0.77;84.01
22440;BME280;11387;51.612;7.210;2023-01-25T07:32:36;102653.41;;;-0.85;84.10
22440;BME280;11387;51.612;7.210;2023-01-25T07:35:05;102642.44;;;-0.76;83.93
22440;BME280;11387;51.612;7.210;2023-01-25T07:37:34;102640.13;;;-0.87;83.84
22440;BME280;11387;51.612;7.210;2023-01-25T07:40:04;102643.91;;;-1.12;84.50
22440;BME280;11387;51.612;7.210;2023-01-25T07:42:32;102642.41;;;-1.15;84.66
22440;BME280;11387;51.612;7.210;2023-01-25T07:45:01;102631.50;;;-1.21;85.47
22440;BME280;11387;51.612;7.210;2023-01-25T07:47:30;102633.34;;;-1.14;85.39
22440;BME280;11387;51.612;7.210;2023-01-25T07:50:00;102640.03;;;-1.10;84.78
22440;BME280;11387;51.612;7.210;2023-01-25T07:52:28;102640.56;;;-1.14;84.85
22440;BME280;11387;51.612;7.210;2023-01-25T07:54:57;102643.28;;;-1.22;85.54
22440;BME280;11387;51.612;7.210;2023-01-25T07:57:26;102635.34;;;-1.16;85.71
22440;BME280;11387;51.612;7.210;2023-01-25T07:59:55;102633.50;;;-1.07;85.90
22440;BME280;11387;51.612;7.210;2023-01-25T08:02:24;102630.97;;;-1.00;85.56
22440;BME280;11387;51.612;7.210;2023-01-25T08:04:53;102630.75;;;-0.91;85.75
22440;BME280;11387;51.612;7.210;2023-01-25T08:07:24;102631.41;;;-0.89;85.58
22440;BME280;11387;51.612;7.210;2023-01-25T08:09:52;102628.88;;;-0.90;84.92
22440;BME280;11387;51.612;7.210;2023-01-25T08:12:21;102623.41;;;-0.97;84.67
22440;BME280;11387;51.612;7.210;2023-01-25T08:14:49;102621.50;;;-0.88;84.52
22440;BME280;11387;51.612;7.210;2023-01-25T08:17:18;102626.88;;;-0.88;84.43
22440;BME280;11387;51.612;7.210;2023-01-25T08:19:47;102622.16;;;-0.86;84.64
22440;BME280;11387;51.612;7.210;2023-01-25T08:22:16;102615.44;;;-0.82;84.30
22440;BME280;11387;51.612;7.210;2023-01-25T08:24:47;102619.22;;;-0.99;84.80
22440;BME280;11387;51.612;7.210;2023-01-25T08:27:16;102619.91;;;-1.06;85.20
22440;BME280;11387;51.612;7.210;2023-01-25T08:29:46;102618.53;;;-0.93;84.98
22440;BME280;11387;51.612;7.210;2023-01-25T08:32:16;102627.59;;;-0.94;85.37
22440;BME280;11387;51.612;7.210;2023-01-25T08:34:45;102619.97;;;-0.83;84.90
22440;BME280;11387;51.612;7.210;2023-01-25T08:37:14;102615.84;;;-0.93;84.28
22440;BME280;11387;51.612;7.210;2023-01-25T08:39:43;102620.66;;;-0.89;84.35
22440;BME280;11387;51.612;7.210;2023-01-25T08:42:16;102619.31;;;-0.85;84.84
22440;BME280;11387;51.612;7.210;2023-01-25T08:44:46;102616.47;;;-0.91;84.23
22440;BME280;11387;51.612;7.210;2023-01-25T08:47:22;102621.56;;;-0.96;84.42
22440;BME280;11387;51.612;7.210;2023-01-25T08:49:53;102620.53;;;-0.95;84.28
22440;BME280;11387;51.612;7.210;2023-01-25T08:52:21;102616.34;;;-0.98;84.20
22440;BME280;11387;51.612;7.210;2023-01-25T08:54:54;102614.53;;;-1.14;84.64
22440;BME280;11387;51.612;7.210;2023-01-25T08:57:34;102611.19;;;-1.16;85.27
22440;BME280;11387;51.612;7.210;2023-01-25T09:00:05;102613.16;;;-1.02;84.84
22440;BME280;11387;51.612;7.210;2023-01-25T09:02:38;102607.69;;;-0.77;84.68
22440;BME280;11387;51.612;7.210;2023-01-25T09:05:07;102608.66;;;-0.70;84.06
22440;BME280;11387;51.612;7.210;2023-01-25T09:07:36;102598.25;;;-0.73;84.44
22440;BME280;11387;51.612;7.210;2023-01-25T09:10:07;102590.84;;;-0.63;83.57
22440;BME280;11387;51.612;7.210;2023-01-25T09:12:38;102593.44;;;-0.86;84.20
22440;BME280;11387;51.612;7.210;2023-01-25T09:15:07;102586.88;;;-0.83;84.43
22440;BME280;11387;51.612;7.210;2023-01-25T09:17:37;102589.22;;;-0.80;84.59
22440;BME280;11387;51.612;7.210;2023-01-25T09:20:08;102587.13;;;-0.93;84.60
22440;BME280;11387;51.612;7.210;2023-01-25T09:22:37;102588.31;;;-0.95;85.10
22440;BME280;11387;51.612;7.210;2023-01-25T09:25:07;102580.31;;;-0.81;84.95
22440;BME280;11387;51.612;7.210;2023-01-25T09:27:37;102578.78;;;-0.75;84.76
22440;BME280;11387;51.612;7.210;2023-01-25T09:30:07;102575.66;;;-0.56;83.97
22440;BME280;11387;51.612;7.210;2023-01-25T09:32:44;102574.41;;;-0.45;84.60
22440;BME280;11387;51.612;7.210;2023-01-25T09:35:16;102572.16;;;-0.33;83.84
22440;BME280;11387;51.612;7.210;2023-01-25T09:37:49;102563.72;;;-0.30;83.54
22440;BME280;11387;51.612;7.210;2023-01-25T09:40:20;102569.50;;;-0.19;83.08
22440;BME280;11387;51.612;7.210;2023-01-25T09:42:57;102564.06;;;-0.11;82.43
22440;BME280;11387;51.612;7.210;2023-01-25T09:45:30;102568.56;;;-0.26;82.32
22440;BME280;11387;51.612;7.210;2023-01-25T09:48:08;102562.03;;;-0.09;82.54
22440;BME280;11387;51.612;7.210;2023-01-25T09:50:58;102559.09;;;0.01;82.25
22440;BME280;11387;51.612;7.210;2023-01-25T09:53:33;102563.31;;;0.18;81.24
22440;BME280;11387;51.612;7.210;2023-01-25T09:56:09;102557.66;;;0.13;80.33
22440;BME280;11387;51.612;7.210;2023-01-25T09:58:43;102561.25;;;-0.17;81.06
22440;BME280;11387;51.612;7.210;2023-01-25T10:01:18;102568.19;;;-0.46;81.64
22440;BME280;11387;51.612;7.210;2023-01-25T10:04:17;102562.38;;;-0.88;83.74
22440;BME280;11387;51.612;7.210;2023-01-25T10:06:50;102557.91;;;-0.65;84.24
22440;BME280;11387;51.612;7.210;2023-01-25T10:09:36;102553.44;;;-0.50;84.04
22440;BME280;11387;51.612;7.210;2023-01-25T10:12:14;102557.09;;;-0.43;83.36
22440;BME280;11387;51.612;7.210;2023-01-25T10:14:45;102550.69;;;-0.42;82.72
22440;BME280;11387;51.612;7.210;2023-01-25T10:17:25;102541.66;;;-0.26;82.68
22440;BME280;11387;51.612;7.210;2023-01-25T10:20:07;102555.53;;;-0.14;83.67
22440;BME280;11387;51.612;7.210;2023-01-25T10:22:45;102545.63;;;0.01;81.95
22440;BME280;11387;51.612;7.210;2023-01-25T10:25:23;102548.31;;;0.01;81.39
22440;BME280;11387;51.612;7.210;2023-01-25T10:28:08;102553.22;;;0.20;80.72
22440;BME280;11387;51.612;7.210;2023-01-25T10:30:53;102544.78;;;0.23;79.96
22440;BME280;11387;51.612;7.210;2023-01-25T10:33:29;102540.97;;;0.32;79.13
22440;BME280;11387;51.612;7.210;2023-01-25T10:36:04;102536.34;;;0.26;78.14
22440;BME280;11387;51.612;7.210;2023-01-25T10:38:39;102536.84;;;0.07;78.28
22440;BME280;11387;51.612;7.210;2023-01-25T10:41:12;102530.38;;;0.16;79.10
22440;BME280;11387;51.612;7.210;2023-01-25T10:43:42;102523.31;;;0.15;77.90
22440;BME280;11387;51.612;7.210;2023-01-25T10:46:21;102520.75;;;-0.16;78.96
22440;BME280;11387;51.612;7.210;2023-01-25T10:48:52;102515.03;;;-0.36;79.00
22440;BME280;11387;51.612;7.210;2023-01-25T10:51:29;102506.66;;;-0.63;80.83
22440;BME280;11387;51.612;7.210;2023-01-25T10:54:00;102502.00;;;-0.47;80.71
22440;BME280;11387;51.612;7.210;2023-01-25T10:56:32;102505.69;;;-0.48;80.87
22440;BME280;11387;51.612;7.210;2023-01-25T10:59:07;102502.84;;;-0.46;80.51
22440;BME280;11387;51.612;7.210;2023-01-25T11:01:45;102497.78;;;-0.26;80.04
22440;BME280;11387;51.612;7.210;2023-01-25T11:04:29;102489.16;;;-0.37;80.27
22440;BME280;11387;51.612;7.210;2023-01-25T11:06:59;102489.81;;;-0.35;79.75
22440;BME280;11387;51.612;7.210;2023-01-25T11:09:32;102476.38;;;-0.35;79.80
22440;BME280;11387;51.612;7.210;2023-01-25T11:12:03;102477.53;;;-0.14;80.13
22440;BME280;11387;51.612;7.210;2023-01-25T11:14:34;102470.56;;;0.06;79.88
22440;BME280;11387;51.612;7.210;2023-01-25T11:17:24;102470.44;;;0.22;78.72
22440;BME280;11387;51.612;7.210;2023-01-25T11:20:14;102460.09;;;0.41;79.06
22440;BME280;11387;51.612;7.210;2023-01-25T11:22:49;102464.84;;;0.39;78.55
22440;BME280;11387;51.612;7.210;2023-01-25T11:25:28;102456.13;;;0.51;78.34
22440;BME280;11387;51.612;7.210;2023-01-25T11:28:17;102451.56;;;0.37;77.23
22440;BME280;11387;51.612;7.210;2023-01-25T11:30:50;102432.75;;;0.22;77.59
22440;BME280;11387;51.612;7.210;2023-01-25T11:33:25;102430.97;;;0.29;78.36
22440;BME280;11387;51.612;7.210;2023-01-25T11:36:16;102418.50;;;0.43;77.43
22440;BME280;11387;51.612;7.210;2023-01-25T11:38:59;102414.53;;;0.54;76.63
22440;BME280;11387;51.612;7.210;2023-01-25T11:41:40;102413.31;;;0.42;76.91
22440;BME280;11387;51.612;7.210;2023-01-25T11:44:36;102403.47;;;0.49;76.76
22440;BME280;11387;51.612;7.210;2023-01-25T11:47:17;102393.63;;;0.41;76.82
22440;BME280;11387;51.612;7.210;2023-01-25T11:50:00;102389.31;;;0.25;76.79
22440;BME280;11387;51.612;7.210;2023-01-25T11:52:45;102379.53;;;0.39;77.56
22440;BME280;11387;51.612;7.210;2023-01-25T11:55:24;102383.22;;;0.53;77.36
22440;BME280;11387;51.612;7.210;2023-01-25T12:02:01;102362.38;;;0.61;76.81
22440;BME280;11387;51.612;7.210;2023-01-25T12:04:59;102351.41;;;0.63;76.62
22440;BME280;11387;51.612;7.210;2023-01-25T12:07:50;102349.75;;;0.62;76.62
22440;BME280;11387;51.612;7.210;2023-01-25T12:10:29;102341.06;;;0.60;75.57
22440;BME280;11387;51.612;7.210;2023-01-25T12:13:05;102330.53;;;0.65;75.59
22440;BME280;11387;51.612;7.210;2023-01-25T12:18:43;102318.16;;;0.34;76.38
22440;BME280;11387;51.612;7.210;2023-01-25T12:21:25;102321.38;;;0.23;76.48
22440;BME280;11387;51.612;7.210;2023-01-25T12:24:10;102314.72;;;-0.10;77.90
22440;BME280;11387;51.612;7.210;2023-01-25T12:26:49;102304.81;;;-0.24;78.72
22440;BME280;11387;51.612;7.210;2023-01-25T12:29:34;102300.75;;;-0.35;79.30
22440;BME280;11387;51.612;7.210;2023-01-25T12:32:19;102293.03;;;-0.23;79.46
22440;BME280;11387;51.612;7.210;2023-01-25T12:35:12;102280.22;;;-0.21;79.37
22440;BME280;11387;51.612;7.210;2023-01-25T12:38:02;102277.22;;;0.03;78.40
22440;BME280;11387;51.612;7.210;2023-01-25T12:40:45;102270.34;;;0.15;77.88
22440;BME280;11387;51.612;7.210;2023-01-25T12:43:29;102259.09;;;0.26;77.62
22440;BME280;11387;51.612;7.210;2023-01-25T12:46:10;102247.94;;;0.29;77.83
22440;BME280;11387;51.612;7.210;2023-01-25T12:48:50;102245.63;;;0.26;77.40
22440;BME280;11387;51.612;7.210;2023-01-25T12:51:32;102239.22;;;0.27;77.70
22440;BME280;11387;51.612;7.210;2023-01-25T12:54:16;102239.06;;;0.36;77.96
22440;BME280;11387;51.612;7.210;2023-01-25T12:56:53;102241.66;;;0.22;78.22
22440;BME280;11387;51.612;7.210;2023-01-25T12:59:28;102234.22;;;0.24;77.61
22440;BME280;11387;51.612;7.210;2023-01-25T13:02:35;102217.66;;;0.06;77.98
22440;BME280;11387;51.612;7.210;2023-01-25T13:05:28;102217.00;;;0.04;78.53
22440;BME280;11387;51.612;7.210;2023-01-25T13:08:09;102206.28;;;0.25;79.32
22440;BME280;11387;51.612;7.210;2023-01-25T13:11:04;102206.31;;;0.32;78.60
22440;BME280;11387;51.612;7.210;2023-01-25T13:13:36;102202.78;;;0.31;77.97
22440;BME280;11387;51.612;7.210;2023-01-25T13:16:30;102192.84;;;0.32;78.02
22440;BME280;11387;51.612;7.210;2023-01-25T13:19:02;102190.63;;;0.36;77.49
22440;BME280;11387;51.612;7.210;2023-01-25T13:21:40;102189.84;;;-0.01;78.79
22440;BME280;11387;51.612;7.210;2023-01-25T13:24:18;102185.59;;;-0.10;78.95
22440;BME280;11387;51.612;7.210;2023-01-25T13:27:03;102185.44;;;-0.23;79.80
22440;BME280;11387;51.612;7.210;2023-01-25T13:29:54;102173.56;;;-0.14;79.54